Time;durP1;ratioP1;P1;durP2;ratioP2;P2;SDS_P1;SDS_P2;PMS_P1;PMS_P2;Temp;Humidity;BMP_temperature;BMP_pressure;BME280_temperature;BME280_humidity;BME280_pressure;Samples;Min_cycle;Max_cycle;Signal;HPM_P1;HPM_P2
2022/05/04 00:00:19;;;;;;;14.98;13.30;;;12.50;99.90;;;;;;5071601;28;20028;-76
2022/05/04 00:02:45;;;;;;;16.80;13.68;;;12.50;99.90;;;;;;5072225;28;20021;-76
2022/05/04 00:05:11;;;;;;;15.50;13.95;;;12.40;99.90;;;;;;5072338;28;20044;-74
2022/05/04 00:07:36;;;;;;;15.27;13.23;;;12.40;99.90;;;;;;5070583;28;20025;-75
2022/05/04 00:10:04;;;;;;;17.48;14.68;;;12.30;99.90;;;;;;5070610;28;20484;-76
2022/05/04 00:12:29;;;;;;;15.43;13.63;;;12.20;99.90;;;;;;5071086;28;20169;-75
2022/05/04 00:14:55;;;;;;;15.60;13.98;;;12.20;99.90;;;;;;5071297;28;20081;-76
2022/05/04 00:17:20;;;;;;;14.68;13.18;;;12.10;99.90;;;;;;5070655;28;20025;-76
2022/05/04 00:19:46;;;;;;;15.48;13.82;;;11.90;99.90;;;;;;5070798;28;20020;-76
2022/05/04 00:22:19;;;;;;;14.57;13.05;;;11.90;99.90;;;;;;5071476;28;20060;-75
2022/05/04 00:24:45;;;;;;;15.68;14.02;;;11.70;99.90;;;;;;5071761;28;20035;-75
2022/05/04 00:27:11;;;;;;;14.98;13.38;;;11.70;99.90;;;;;;5058047;28;20033;-74
2022/05/04 00:29:37;;;;;;;15.48;14.00;;;11.70;99.90;;;;;;5071654;28;20048;-75
2022/05/04 00:32:02;;;;;;;15.52;13.13;;;11.60;99.90;;;;;;5071057;28;20107;-74
2022/05/04 00:34:28;;;;;;;15.88;14.25;;;11.70;99.90;;;;;;5071492;28;20025;-74
2022/05/04 00:36:53;;;;;;;15.00;13.60;;;11.80;99.90;;;;;;5071362;28;20021;-73
2022/05/04 00:39:19;;;;;;;15.57;13.15;;;11.90;99.90;;;;;;5071468;28;20382;-73
2022/05/04 00:41:45;;;;;;;15.63;13.93;;;11.90;99.90;;;;;;5070948;28;20060;-73
2022/05/04 00:44:10;;;;;;;15.35;13.77;;;12.00;99.90;;;;;;5071554;28;20043;-74
2022/05/04 00:46:35;;;;;;;14.45;12.90;;;12.00;99.90;;;;;;5071290;28;20112;-73
2022/05/04 00:49:01;;;;;;;14.43;12.93;;;12.20;99.90;;;;;;5071472;28;20024;-75
2022/05/04 00:51:28;;;;;;;16.20;13.05;;;12.20;99.90;;;;;;5070671;28;20016;-73
2022/05/04 00:53:54;;;;;;;19.00;13.82;;;12.30;99.90;;;;;;5071280;28;20028;-74
2022/05/04 00:56:19;;;;;;;18.08;14.20;;;12.30;99.90;;;;;;5069971;28;20025;-74
2022/05/04 00:58:54;;;;;;;16.38;13.45;;;12.30;99.90;;;;;;5071223;28;20107;-73
2022/05/04 01:01:23;;;;;;;16.47;13.93;;;12.30;99.90;;;;;;5069766;28;20020;-73
2022/05/04 01:03:49;;;;;;;16.10;13.95;;;12.20;99.90;;;;;;5059172;28;20021;-73
2022/05/04 01:06:14;;;;;;;15.63;13.75;;;12.00;99.90;;;;;;5069984;28;20025;-74
2022/05/04 01:08:40;;;;;;;15.60;14.00;;;12.00;99.90;;;;;;5071158;28;20478;-74
2022/05/04 01:11:06;;;;;;;15.98;14.27;;;12.10;99.90;;;;;;5070748;28;20075;-75
2022/05/04 01:13:31;;;;;;;16.33;13.13;;;11.90;99.90;;;;;;5069895;28;20382;-74
2022/05/04 01:15:57;;;;;;;15.45;13.80;;;11.90;99.90;;;;;;5071206;28;20036;-75
2022/05/04 01:18:22;;;;;;;15.70;12.98;;;11.70;99.90;;;;;;5069833;28;20028;-74
2022/05/04 01:20:48;;;;;;;15.98;13.32;;;11.70;99.90;;;;;;5070529;28;20433;-75
2022/05/04 01:23:13;;;;;;;16.25;14.55;;;11.60;99.90;;;;;;5071130;28;20028;-75
2022/05/04 01:25:39;;;;;;;20.80;15.00;;;11.40;99.90;;;;;;5071131;28;20478;-75
2022/05/04 01:28:05;;;;;;;18.35;14.43;;;11.50;99.90;;;;;;5069606;28;20067;-75
2022/05/04 01:30:32;;;;;;;16.17;14.48;;;11.40;99.90;;;;;;5065848;28;20078;-75
2022/05/04 01:32:58;;;;;;;15.48;13.88;;;11.30;99.90;;;;;;5062560;28;20027;-75
2022/05/04 01:35:24;;;;;;;17.10;15.32;;;11.30;99.90;;;;;;5071186;28;20428;-73
2022/05/04 01:37:49;;;;;;;18.17;15.77;;;11.30;99.90;;;;;;5071407;28;20038;-75
2022/05/04 01:40:15;;;;;;;17.23;15.43;;;11.30;99.90;;;;;;5070763;28;20032;-78
2022/05/04 01:42:41;;;;;;;17.73;15.82;;;11.20;99.90;;;;;;5071410;28;20032;-74
2022/05/04 01:45:08;;;;;;;18.55;16.73;;;10.90;99.90;;;;;;5071510;28;20043;-73
2022/05/04 01:47:34;;;;;;;17.75;15.88;;;10.70;99.90;;;;;;5071421;28;20032;-74
2022/05/04 01:50:00;;;;;;;18.35;16.38;;;10.70;99.90;;;;;;5074338;28;20107;-75
2022/05/04 01:52:26;;;;;;;19.65;16.88;;;10.50;99.90;;;;;;5073725;28;20402;-74
2022/05/04 01:54:52;;;;;;;18.85;16.70;;;10.50;99.90;;;;;;5074232;28;20393;-74
2022/05/04 01:57:19;;;;;;;20.27;16.55;;;10.50;99.90;;;;;;5074271;28;20107;-75
2022/05/04 01:59:45;;;;;;;18.05;16.17;;;10.70;99.90;;;;;;5074047;28;20029;-74
2022/05/04 02:02:10;;;;;;;19.42;17.27;;;10.30;99.90;;;;;;5072391;28;20035;-75
2022/05/04 02:04:37;;;;;;;19.92;17.83;;;10.20;99.90;;;;;;5074098;28;20455;-76
2022/05/04 02:07:03;;;;;;;19.40;17.58;;;9.90;99.90;;;;;;5074018;28;20035;-75
2022/05/04 02:09:29;;;;;;;21.42;17.40;;;9.80;99.90;;;;;;5074259;28;20021;-75
2022/05/04 02:11:55;;;;;;;20.60;17.52;;;10.00;99.90;;;;;;5072220;28;20021;-75
2022/05/04 02:14:20;;;;;;;22.00;18.52;;;10.10;99.90;;;;;;5073964;28;20078;-75
2022/05/04 02:16:46;;;;;;;19.88;17.75;;;10.20;99.90;;;;;;5073913;28;20121;-74
2022/05/04 02:19:12;;;;;;;26.55;23.77;;;10.20;99.90;;;;;;5073913;28;20028;-74
2022/05/04 02:21:37;;;;;;;36.15;32.25;;;10.00;99.90;;;;;;5073177;28;20020;-74
2022/05/04 02:24:03;;;;;;;28.00;25.02;;;10.10;99.90;;;;;;5073783;28;20029;-74
2022/05/04 02:26:29;;;;;;;22.17;19.88;;;10.10;99.90;;;;;;5073418;28;20043;-75
2022/05/04 02:28:54;;;;;;;19.85;17.73;;;10.10;99.90;;;;;;5073710;28;20029;-76
2022/05/04 02:31:20;;;;;;;20.85;17.27;;;10.30;99.90;;;;;;5073170;28;20056;-76
2022/05/04 02:33:47;;;;;;;20.25;17.73;;;10.30;99.90;;;;;;5072130;28;20115;-76
2022/05/04 02:39:02;;;;;;;18.80;15.90;;;10.50;99.90;;;;;;5042542;28;20497;-76
2022/05/04 02:41:28;;;;;;;19.90;17.48;;;10.60;99.90;;;;;;5071637;28;20025;-76
2022/05/04 02:43:53;;;;;;;18.98;16.05;;;10.50;99.90;;;;;;5073511;28;20024;-75
2022/05/04 02:46:20;;;;;;;18.85;16.90;;;10.40;99.90;;;;;;5059778;28;20025;-75
2022/05/04 02:48:46;;;;;;;18.70;16.73;;;10.40;99.90;;;;;;5071953;28;20024;-76
2022/05/04 02:51:13;;;;;;;18.60;16.40;;;10.30;99.90;;;;;;5072724;28;20523;-75
2022/05/04 02:53:38;;;;;;;19.85;17.38;;;10.20;99.90;;;;;;5073246;28;20031;-74
2022/05/04 02:56:05;;;;;;;19.13;16.02;;;10.10;99.90;;;;;;5071976;28;20445;-75
2022/05/04 02:58:31;;;;;;;19.45;17.33;;;10.20;99.90;;;;;;5072125;28;20025;-76
2022/05/04 03:04:06;;;;;;;20.35;17.88;;;10.10;99.90;;;;;;5066765;28;20031;-74
2022/05/04 03:06:35;;;;;;;22.60;17.38;;;10.10;99.90;;;;;;5072881;28;20059;-74
2022/05/04 03:09:01;;;;;;;20.23;18.05;;;10.10;99.90;;;;;;5072966;28;20078;-74
2022/05/04 03:14:11;;;;;;;24.65;17.58;;;9.90;99.90;;;;;;5072961;28;20460;-75
2022/05/04 03:16:39;;;;;;;18.00;16.20;;;10.00;99.90;;;;;;5072701;28;20024;-75
2022/05/04 03:19:06;;;;;;;19.65;17.55;;;10.20;99.90;;;;;;5072762;28;20025;-75
2022/05/04 03:21:32;;;;;;;18.98;16.88;;;10.40;99.90;;;;;;5060106;28;20083;-75
2022/05/04 03:23:58;;;;;;;19.13;16.05;;;10.20;99.90;;;;;;5068875;28;20025;-74
2022/05/04 03:26:24;;;;;;;19.23;16.80;;;10.30;99.90;;;;;;5072306;28;20083;-75
2022/05/04 03:28:50;;;;;;;19.00;17.00;;;10.30;99.90;;;;;;5072382;28;20124;-75
2022/05/04 03:31:16;;;;;;;17.85;16.00;;;10.30;99.90;;;;;;5071762;28;20023;-75
2022/05/04 03:33:41;;;;;;;18.35;16.48;;;10.30;99.90;;;;;;5072382;28;20025;-75
2022/05/04 03:36:07;;;;;;;19.58;16.77;;;10.30;99.90;;;;;;5071102;28;20561;-76
2022/05/04 03:38:33;;;;;;;20.40;17.52;;;10.50;99.90;;;;;;5072224;28;20039;-76
2022/05/04 03:40:59;;;;;;;21.85;17.20;;;10.40;99.90;;;;;;5071788;28;20435;-76
2022/05/04 03:43:24;;;;;;;19.63;16.60;;;10.40;99.90;;;;;;5071000;28;20025;-75
2022/05/04 03:45:50;;;;;;;18.33;16.45;;;10.50;99.90;;;;;;5072111;28;20183;-74
2022/05/04 03:48:15;;;;;;;20.77;18.60;;;10.60;99.90;;;;;;5071930;28;20021;-74
2022/05/04 03:50:41;;;;;;;19.85;16.77;;;10.70;99.90;;;;;;5060860;28;20048;-75
2022/05/04 03:53:06;;;;;;;18.92;16.90;;;10.50;99.90;;;;;;5069244;28;20027;-75
2022/05/04 03:55:33;;;;;;;17.95;16.10;;;10.70;99.90;;;;;;5071967;28;20043;-74
2022/05/04 03:57:59;;;;;;;22.63;17.33;;;10.60;99.90;;;;;;5068107;28;20025;-74
2022/05/04 04:00:25;;;;;;;22.55;17.52;;;10.70;99.90;;;;;;5064574;28;20027;-73
2022/05/04 04:02:50;;;;;;;18.67;16.25;;;10.70;99.90;;;;;;5071972;28;20147;-73
2022/05/04 04:05:16;;;;;;;22.27;18.08;;;10.70;99.90;;;;;;5071932;28;20028;-74
2022/05/04 04:07:41;;;;;;;20.73;17.15;;;10.70;99.90;;;;;;5070105;28;20027;-73
2022/05/04 04:10:08;;;;;;;23.65;18.30;;;10.70;99.90;;;;;;5071399;28;20062;-73
2022/05/04 04:12:33;;;;;;;19.00;16.48;;;10.60;99.90;;;;;;5067220;28;20024;-74
2022/05/04 04:14:58;;;;;;;20.92;17.48;;;10.60;99.90;;;;;;5050659;28;20029;-74
2022/05/04 04:17:24;;;;;;;20.85;18.35;;;10.50;99.90;;;;;;5068889;28;20032;-74
2022/05/04 04:21:50;;;;;;;19.05;16.77;;;10.40;99.90;;;;;;5071811;28;20037;-75
2022/05/04 04:22:36;;;;;;;19.77;17.80;;;10.40;99.90;;;;;;5071305;28;20110;-74
2022/05/04 04:25:02;;;;;;;18.02;16.02;;;10.50;99.90;;;;;;5070357;28;20513;-73
2022/05/04 04:27:30;;;;;;;19.20;17.23;;;10.50;99.90;;;;;;5071447;28;20036;-74
2022/05/04 04:29:56;;;;;;;20.15;17.98;;;10.60;99.90;;;;;;5070424;28;20021;-73
2022/05/04 04:32:22;;;;;;;20.02;17.63;;;10.60;99.90;;;;;;5071173;28;20028;-73
2022/05/04 04:34:48;;;;;;;20.50;17.88;;;10.60;99.90;;;;;;5070360;28;20027;-74
2022/05/04 04:37:13;;;;;;;19.10;17.08;;;10.60;99.90;;;;;;5071685;28;20016;-73
2022/05/04 04:39:39;;;;;;;20.80;17.50;;;10.80;99.90;;;;;;5058174;28;20124;-73
2022/05/04 04:42:05;;;;;;;19.08;16.98;;;11.00;99.90;;;;;;5071001;28;20501;-74
2022/05/04 04:44:30;;;;;;;18.83;16.83;;;11.10;99.90;;;;;;5071499;28;20502;-74
2022/05/04 04:46:56;;;;;;;19.00;16.98;;;11.20;99.90;;;;;;5071857;28;20071;-74
2022/05/04 04:49:21;;;;;;;20.98;17.17;;;11.20;99.90;;;;;;5071287;28;20031;-74
2022/05/04 04:51:47;;;;;;;18.90;16.90;;;11.40;99.90;;;;;;5070847;28;20021;-74
2022/05/04 04:54:12;;;;;;;20.23;16.60;;;11.40;99.90;;;;;;5058105;28;20498;-74
2022/05/04 04:56:38;;;;;;;19.70;16.98;;;11.50;99.90;;;;;;5071157;28;20032;-74
2022/05/04 04:59:03;;;;;;;20.23;18.05;;;11.60;99.90;;;;;;5071413;28;20031;-74
2022/05/04 05:01:29;;;;;;;19.02;16.90;;;11.60;99.90;;;;;;5070721;28;20067;-74
2022/05/04 05:03:55;;;;;;;18.27;16.38;;;11.50;99.90;;;;;;5070811;28;20061;-74
2022/05/04 05:06:22;;;;;;;19.50;16.77;;;11.50;99.90;;;;;;5070455;28;20398;-74
2022/05/04 05:08:48;;;;;;;18.98;16.25;;;11.50;99.90;;;;;;5070174;28;20012;-75
2022/05/04 05:11:14;;;;;;;17.80;15.93;;;11.50;99.90;;;;;;5070687;28;20023;-76
2022/05/04 05:16:24;;;;;;;18.00;16.00;;;11.80;99.90;;;;;;5058550;28;20036;-73
2022/05/04 05:18:50;;;;;;;18.17;16.27;;;11.80;99.90;;;;;;5071675;28;20024;-75
2022/05/04 05:21:17;;;;;;;20.70;15.35;;;11.80;99.90;;;;;;5070926;28;20039;-74
2022/05/04 05:23:43;;;;;;;22.33;16.23;;;12.00;99.90;;;;;;5074868;28;20111;-74
2022/05/04 05:26:09;;;;;;;19.27;16.95;;;12.10;99.90;;;;;;5073944;28;20554;-74
2022/05/04 05:28:34;;;;;;;19.00;16.88;;;12.30;99.90;;;;;;5074786;28;20032;-74
2022/05/04 05:31:00;;;;;;;18.23;16.30;;;12.50;99.90;;;;;;5074739;28;20020;-74
2022/05/04 05:33:25;;;;;;;18.00;15.18;;;12.70;99.90;;;;;;5074985;28;20478;-74
2022/05/04 05:35:51;;;;;;;17.77;15.88;;;12.80;99.90;;;;;;5074884;28;20021;-74
2022/05/04 05:38:16;;;;;;;18.80;15.48;;;12.90;99.90;;;;;;5074930;28;20029;-74
2022/05/04 05:40:42;;;;;;;21.58;15.18;;;13.00;99.90;;;;;;5074572;28;20035;-74
2022/05/04 05:43:08;;;;;;;16.85;15.05;;;13.10;99.90;;;;;;5074735;28;20032;-75
2022/05/04 05:45:34;;;;;;;19.15;15.85;;;13.00;99.90;;;;;;5074543;28;20028;-76
2022/05/04 05:48:00;;;;;;;19.38;15.68;;;13.20;99.90;;;;;;5073103;28;20074;-75
2022/05/04 05:50:26;;;;;;;17.63;15.43;;;13.20;99.90;;;;;;5073989;28;20066;-75
2022/05/04 05:52:51;;;;;;;17.55;15.27;;;13.20;99.90;;;;;;5074529;28;20020;-75
2022/05/04 05:55:17;;;;;;;16.75;15.02;;;13.30;99.90;;;;;;5074425;28;20028;-75
2022/05/04 05:57:42;;;;;;;18.38;15.35;;;13.40;99.90;;;;;;5072794;28;20115;-74
2022/05/04 06:00:08;;;;;;;18.08;16.15;;;13.60;99.90;;;;;;5076755;28;20068;-74
2022/05/04 06:02:34;;;;;;;15.80;13.88;;;13.60;99.90;;;;;;5073676;28;20020;-75
2022/05/04 06:05:00;;;;;;;16.20;14.45;;;13.70;99.90;;;;;;5074219;28;20074;-74
2022/05/04 06:07:25;;;;;;;17.25;15.32;;;13.70;99.90;;;;;;5072806;28;20033;-75
2022/05/04 06:09:51;;;;;;;24.95;19.77;;;13.70;99.90;;;;;;5074087;28;20025;-74
2022/05/04 06:12:17;;;;;;;20.83;18.60;;;13.90;99.90;;;;;;5073422;28;20033;-75
2022/05/04 06:14:42;;;;;;;19.00;15.15;;;14.00;99.90;;;;;;5073956;28;20074;-75
2022/05/04 06:17:08;;;;;;;18.65;14.98;;;14.10;99.90;;;;;;5073924;28;20032;-76
2022/05/04 06:19:34;;;;;;;17.55;14.77;;;14.20;99.90;;;;;;5073147;28;20016;-76
2022/05/04 06:21:59;;;;;;;16.00;14.40;;;14.20;99.90;;;;;;5073271;28;20085;-76
2022/05/04 06:24:27;;;;;;;15.80;14.20;;;14.20;99.90;;;;;;5066161;28;20395;-75
2022/05/04 06:26:53;;;;;;;20.25;14.88;;;14.30;99.90;;;;;;5063545;28;20025;-75
2022/05/04 06:29:18;;;;;;;17.30;14.18;;;14.30;99.90;;;;;;5073743;28;20020;-75
2022/05/04 06:34:28;;;;;;;17.38;14.07;;;14.50;99.90;;;;;;5065149;28;20506;-73
2022/05/04 06:36:53;;;;;;;16.00;12.90;;;14.80;99.90;;;;;;5069360;28;20032;-73
2022/05/04 06:39:19;;;;;;;13.90;12.48;;;15.10;99.90;;;;;;5073649;28;20101;-72
2022/05/04 06:41:44;;;;;;;15.45;13.20;;;15.30;99.90;;;;;;5072809;28;20025;-71
2022/05/04 06:44:10;;;;;;;14.48;13.02;;;15.40;99.90;;;;;;5072176;28;20394;-74
2022/05/04 06:46:41;;;;;;;14.15;11.50;;;15.40;99.90;;;;;;5073222;28;20104;-71
2022/05/04 06:49:09;;;;;;;13.75;12.38;;;15.30;99.90;;;;;;5073383;28;20020;-71
2022/05/04 06:51:35;;;;;;;16.35;12.65;;;15.40;99.90;;;;;;5071273;28;20027;-73
2022/05/04 06:54:00;;;;;;;14.48;12.00;;;15.60;99.90;;;;;;5072876;28;20394;-74
2022/05/04 06:56:26;;;;;;;12.70;11.45;;;15.60;99.90;;;;;;5073090;28;20048;-73
2022/05/04 06:58:51;;;;;;;14.10;12.60;;;15.60;99.90;;;;;;5073367;28;20031;-71
2022/05/04 07:01:17;;;;;;;13.25;11.80;;;15.60;99.90;;;;;;5086906;28;20447;-73
2022/05/04 07:03:42;;;;;;;15.20;10.65;;;15.70;99.90;;;;;;5073166;28;20024;-75
2022/05/04 07:06:08;;;;;;;12.90;10.18;;;15.90;99.90;;;;;;5073118;28;20032;-76
2022/05/04 07:08:34;;;;;;;13.30;10.40;;;16.20;99.90;;;;;;5073237;28;20032;-73
2022/05/04 07:11:00;;;;;;;11.50;9.95;;;16.30;99.90;;;;;;5072378;28;20020;-73
2022/05/04 07:13:26;;;;;;;14.55;10.77;;;16.50;99.90;;;;;;5071736;28;20108;-76
2022/05/04 07:15:51;;;;;;;11.77;10.68;;;16.80;99.90;;;;;;5071779;28;20055;-75
2022/05/04 07:18:16;;;;;;;13.90;10.95;;;16.80;99.90;;;;;;5073267;28;20394;-75
2022/05/04 07:20:42;;;;;;;15.82;11.25;;;16.80;99.90;;;;;;5071109;28;20029;-74
2022/05/04 07:23:08;;;;;;;13.20;10.35;;;16.80;99.90;;;;;;5072712;28;20024;-75
2022/05/04 07:25:33;;;;;;;12.65;10.30;;;16.90;99.90;;;;;;5071460;28;20099;-74
2022/05/04 07:27:59;;;;;;;10.52;9.43;;;17.00;99.90;;;;;;5071034;28;20028;-75
2022/05/04 07:30:25;;;;;;;12.98;9.90;;;16.70;99.90;;;;;;5071897;28;20024;-70
2022/05/04 07:32:50;;;;;;;14.43;10.13;;;16.90;99.90;;;;;;5072484;28;20036;-72
2022/05/04 07:35:17;;;;;;;12.23;10.30;;;17.10;99.90;;;;;;5072413;28;20059;-72
2022/05/04 07:37:43;;;;;;;14.07;10.48;;;17.10;99.90;;;;;;5071040;28;20024;-72
2022/05/04 07:42:53;;;;;;;15.45;10.02;;;16.80;99.90;;;;;;5072282;28;20074;-73
2022/05/04 07:45:19;;;;;;;16.55;9.82;;;16.90;99.90;;;;;;5071832;28;20020;-75
2022/05/04 07:47:46;;;;;;;11.73;9.30;;;17.00;99.90;;;;;;5072191;28;20513;-75
2022/05/04 07:50:11;;;;;;;11.82;9.07;;;17.10;99.90;;;;;;5070858;28;20115;-76
2022/05/04 07:52:37;;;;;;;12.50;9.13;;;17.30;99.90;;;;;;5070702;28;20092;-76
2022/05/04 07:55:04;;;;;;;10.20;8.98;;;17.60;99.90;;;;;;5072248;28;20044;-76
2022/05/04 07:57:30;;;;;;;11.80;9.88;;;17.60;99.90;;;;;;5072150;28;20103;-76
2022/05/04 08:05:30;;;;;;;12.10;10.25;;;17.40;99.90;;;;;;5072384;28;20308;-76
2022/05/04 08:07:56;;;;;;;12.93;10.10;;;17.30;99.90;;;;;;5070466;28;20115;-75
2022/05/04 08:10:21;;;;;;;12.43;10.48;;;16.90;99.90;;;;;;5071187;28;20020;-75
2022/05/04 08:12:47;;;;;;;12.18;10.88;;;16.70;99.90;;;;;;5058644;28;20713;-75
2022/05/04 08:15:13;;;;;;;12.95;9.38;;;16.60;99.90;;;;;;5071857;28;20021;-75
2022/05/04 08:17:38;;;;;;;12.15;9.45;;;17.00;99.90;;;;;;5058393;28;20032;-74
2022/05/04 08:20:04;;;;;;;10.93;9.80;;;17.30;99.90;;;;;;5071762;28;20401;-76
2022/05/04 08:22:30;;;;;;;12.73;9.57;;;17.20;99.90;;;;;;5071141;28;20028;-76
2022/05/04 08:24:55;;;;;;;10.35;9.20;;;17.60;99.90;;;;;;5070465;28;20032;-76
2022/05/04 08:27:21;;;;;;;13.13;9.40;;;17.60;99.90;;;;;;5070220;28;20403;-77
2022/05/04 08:29:47;;;;;;;10.52;9.23;;;17.60;99.90;;;;;;5071690;28;20028;-75
2022/05/04 08:32:13;;;;;;;13.93;10.20;;;17.70;99.90;;;;;;5070880;28;20115;-74
2022/05/04 08:34:38;;;;;;;10.85;9.48;;;17.90;99.90;;;;;;5071691;28;20023;-75
2022/05/04 08:37:04;;;;;;;13.43;10.10;;;17.40;99.90;;;;;;5071532;28;20025;-76
2022/05/04 08:39:30;;;;;;;10.63;9.52;;;17.60;99.90;;;;;;5071606;28;20028;-75
2022/05/04 08:41:56;;;;;;;10.10;8.90;;;17.90;99.90;;;;;;5069591;28;20401;-76
2022/05/04 08:44:23;;;;;;;11.55;9.55;;;18.00;99.90;;;;;;5071868;28;20040;-76
2022/05/04 08:46:50;;;;;;;10.73;9.70;;;17.90;99.90;;;;;;5071429;28;20508;-72
2022/05/04 08:49:19;;;;;;;12.40;9.38;;;18.00;99.90;;;;;;5071648;28;20020;-76
2022/05/04 08:51:45;;;;;;;9.90;8.88;;;18.20;99.90;;;;;;5069787;28;20021;-76
2022/05/04 08:54:11;;;;;;;10.30;9.20;;;17.90;99.90;;;;;;5071464;28;20028;-75
2022/05/04 08:56:37;;;;;;;10.02;9.13;;;18.20;99.90;;;;;;5071837;28;20016;-75
2022/05/04 08:59:07;;;;;;;12.43;9.02;;;18.10;99.90;;;;;;5075373;28;20772;-75
2022/05/04 09:01:37;;;;;;;11.05;9.00;;;17.90;99.90;;;;;;5061494;28;20044;-76
2022/05/04 09:04:02;;;;;;;12.50;8.98;;;17.60;99.90;;;;;;5075466;28;20024;-75
2022/05/04 09:06:30;;;;;;;14.95;9.10;;;17.70;99.90;;;;;;5075186;28;20379;-76
2022/05/04 09:09:10;;;;;;;10.45;9.38;;;17.70;99.90;;;;;;5075165;28;20063;-75
2022/05/04 09:11:40;;;;;;;11.68;8.80;;;17.60;99.90;;;;;;5074769;28;20020;-76
2022/05/04 09:14:19;;;;;;;14.13;9.38;;;17.80;99.90;;;;;;5075123;28;20063;-75
2022/05/04 09:16:46;;;;;;;10.27;8.50;;;17.70;99.90;;;;;;5075083;28;20028;-76
2022/05/04 09:19:17;;;;;;;10.10;9.10;;;17.60;99.90;;;;;;5075150;28;20032;-76
2022/05/04 09:21:45;;;;;;;10.13;9.13;;;17.60;99.90;;;;;;5073208;28;20029;-75
2022/05/04 09:24:14;;;;;;;9.93;8.77;;;17.80;99.90;;;;;;5074870;28;20025;-75
2022/05/04 09:26:44;;;;;;;10.75;8.90;;;17.90;99.90;;;;;;5074732;28;20398;-76
2022/05/04 09:29:12;;;;;;;10.18;8.90;;;17.80;99.90;;;;;;5074961;28;20059;-76
2022/05/04 09:31:46;;;;;;;10.57;9.20;;;18.00;99.90;;;;;;5074229;28;20024;-75
2022/05/04 09:34:11;;;;;;;13.50;8.85;;;17.80;99.90;;;;;;5064160;28;20107;-79
2022/05/04 09:44:54;;;;;;;9.88;8.85;;;18.10;99.90;;;;;;5075168;28;20117;-75
2022/05/04 09:45:10;;;;;;;15.68;9.23;;;18.40;99.90;;;;;;5071375;28;20119;-75
2022/05/04 09:47:40;;;;;;;9.73;8.82;;;18.30;99.90;;;;;;5065748;28;20033;-75
2022/05/04 09:50:08;;;;;;;9.70;8.73;;;18.70;99.90;;;;;;5073172;28;20386;-75
2022/05/04 09:52:46;;;;;;;9.13;8.32;;;19.10;99.90;;;;;;5073786;28;20025;-75
2022/05/04 09:55:24;;;;;;;9.13;8.23;;;18.90;99.90;;;;;;5061204;28;20074;-75
2022/05/04 09:57:50;;;;;;;8.60;7.75;;;19.20;99.90;;;;;;5073050;28;20464;-76
2022/05/04 10:00:19;;;;;;;8.23;7.43;;;18.90;99.90;;;;;;5072755;28;20032;-76
2022/05/04 10:02:46;;;;;;;8.60;7.70;;;19.00;99.90;;;;;;5074416;28;20033;-76
2022/05/04 10:05:12;;;;;;;8.90;8.00;;;18.80;99.90;;;;;;5072980;28;20033;-76
2022/05/04 10:07:39;;;;;;;8.07;7.18;;;19.10;99.90;;;;;;5072316;28;20028;-75
2022/05/04 10:10:06;;;;;;;7.90;7.20;;;19.10;99.90;;;;;;5074129;28;20032;-76
2022/05/04 10:12:38;;;;;;;8.50;7.60;;;19.40;99.90;;;;;;5073404;28;20036;-75
2022/05/04 10:15:07;;;;;;;8.60;7.80;;;19.40;99.90;;;;;;5072848;28;20107;-75
2022/05/04 10:17:35;;;;;;;8.15;7.45;;;19.30;99.90;;;;;;5072620;28;20058;-76
2022/05/04 10:20:20;;;;;;;10.73;8.15;;;19.50;99.90;;;;;;5074000;28;20028;-75
2022/05/04 10:22:57;;;;;;;8.77;7.88;;;19.40;99.90;;;;;;5059159;28;20024;-75
2022/05/04 10:25:24;;;;;;;9.23;7.78;;;19.90;99.90;;;;;;5072524;28;20028;-76
2022/05/04 10:27:50;;;;;;;8.90;8.00;;;20.20;99.90;;;;;;5072156;28;20036;-75
2022/05/04 10:30:31;;;;;;;8.68;7.50;;;20.10;99.90;;;;;;5071774;28;20017;-74
2022/05/04 10:32:59;;;;;;;9.32;7.55;;;20.30;99.90;;;;;;5072420;28;20386;-76
2022/05/04 10:35:40;;;;;;;7.55;6.70;;;20.40;99.90;;;;;;5073517;28;20017;-76
2022/05/04 10:38:10;;;;;;;9.60;7.88;;;20.70;99.90;;;;;;5073427;28;20031;-76
2022/05/04 10:40:37;;;;;;;8.32;7.53;;;20.70;99.90;;;;;;5072861;28;20028;-76
2022/05/04 10:43:08;;;;;;;8.65;7.78;;;20.50;99.90;;;;;;5072207;28;20025;-75
2022/05/04 10:45:39;;;;;;;10.15;7.07;;;20.40;99.90;;;;;;5073427;28;20165;-75
2022/05/04 10:48:20;;;;;;;8.00;7.20;;;20.90;99.90;;;;;;5073102;28;20028;-76
2022/05/04 10:51:09;;;;;;;9.93;7.28;;;20.90;99.90;;;;;;5072672;28;20031;-76
2022/05/04 10:53:38;;;;;;;6.95;6.25;;;20.90;99.90;;;;;;5065326;28;20119;-75
2022/05/04 10:56:21;;;;;;;8.48;6.85;;;21.10;99.90;;;;;;5073734;28;20021;-76
2022/05/04 10:58:56;;;;;;;10.18;6.78;;;21.00;99.90;;;;;;5073192;28;20051;-76
2022/05/04 11:01:25;;;;;;;7.35;6.50;;;21.10;99.90;;;;;;5057926;28;20028;-76
2022/05/04 11:04:17;;;;;;;8.93;6.55;;;20.90;99.90;;;;;;5073192;28;20089;-77
2022/05/04 11:06:56;;;;;;;7.80;6.75;;;20.90;99.90;;;;;;5061860;28;20032;-77
2022/05/04 11:09:29;;;;;;;7.15;6.38;;;21.60;99.90;;;;;;5071881;28;20432;-75
2022/05/04 11:12:03;;;;;;;7.55;6.50;;;21.00;99.90;;;;;;5072706;28;20024;-76
2022/05/04 11:14:29;;;;;;;7.15;6.43;;;20.60;99.90;;;;;;5073013;28;20021;-76
2022/05/04 11:16:57;;;;;;;9.35;7.05;;;20.40;99.90;;;;;;5073145;28;20390;-77
2022/05/04 11:19:28;;;;;;;15.60;6.75;;;20.00;99.90;;;;;;5072136;28;20112;-76
2022/05/04 11:21:55;;;;;;;6.90;6.20;;;20.70;99.90;;;;;;5072167;28;20024;-76
2022/05/04 11:24:21;;;;;;;8.50;6.07;;;21.00;99.90;;;;;;5072737;28;20059;-76
2022/05/04 11:26:48;;;;;;;7.15;6.43;;;21.00;99.90;;;;;;5071049;28;20133;-76
2022/05/04 11:29:17;;;;;;;7.97;6.80;;;20.40;99.90;;;;;;5072683;28;20025;-76
2022/05/04 11:31:47;;;;;;;8.07;6.88;;;19.90;99.90;;;;;;5067339;28;20017;-76
2022/05/04 11:34:17;;;;;;;9.02;6.93;;;19.80;99.90;;;;;;5069686;28;20366;-76
2022/05/04 11:36:47;;;;;;;7.20;6.50;;;19.80;99.90;;;;;;5069784;28;20020;-75
2022/05/04 11:39:18;;;;;;;7.90;6.53;;;19.80;99.90;;;;;;5071083;28;20028;-76
2022/05/04 11:41:48;;;;;;;7.50;6.35;;;19.70;99.90;;;;;;5070356;28;20103;-76
2022/05/04 11:44:14;;;;;;;7.60;6.57;;;19.90;99.90;;;;;;5072265;28;20063;-76
2022/05/04 11:46:47;;;;;;;8.13;6.65;;;20.00;99.90;;;;;;5072159;28;20367;-76
2022/05/04 11:49:12;;;;;;;8.48;7.10;;;20.10;99.90;;;;;;5072647;28;20020;-76
2022/05/04 11:51:38;;;;;;;7.05;6.35;;;20.20;99.90;;;;;;5070349;28;20389;-76
2022/05/04 11:54:04;;;;;;;8.48;6.15;;;20.00;99.90;;;;;;5070687;28;20028;-76
2022/05/04 11:56:30;;;;;;;6.82;6.15;;;20.00;99.90;;;;;;5071903;28;20024;-75
2022/05/04 11:58:55;;;;;;;8.25;6.75;;;20.00;99.90;;;;;;5072018;28;20025;-75
2022/05/04 12:01:21;;;;;;;7.47;6.60;;;20.10;99.90;;;;;;5071331;28;20040;-75
2022/05/04 12:03:47;;;;;;;7.25;6.28;;;20.00;99.90;;;;;;5071981;28;20028;-76
2022/05/04 12:06:13;;;;;;;7.05;6.00;;;20.00;99.90;;;;;;5071932;28;20037;-75
2022/05/04 12:08:41;;;;;;;7.38;6.68;;;19.90;99.90;;;;;;5070366;28;20029;-75
2022/05/04 12:11:08;;;;;;;8.40;6.85;;;20.00;99.90;;;;;;5071162;28;20025;-76
2022/05/04 12:13:40;;;;;;;8.05;6.55;;;19.90;99.90;;;;;;5072022;28;20021;-75
2022/05/04 12:16:08;;;;;;;7.28;6.53;;;20.10;99.90;;;;;;5071794;28;20024;-76
2022/05/04 12:18:35;;;;;;;6.22;5.50;;;20.10;99.90;;;;;;5071768;28;20028;-76
2022/05/04 12:21:12;;;;;;;7.38;5.53;;;19.80;99.90;;;;;;5071187;28;20108;-76
2022/05/04 12:23:40;;;;;;;5.22;4.68;;;19.70;99.90;;;;;;5071611;28;20059;-76
2022/05/04 12:26:06;;;;;;;5.97;5.13;;;19.50;99.90;;;;;;5071635;28;20025;-76
2022/05/04 12:28:33;;;;;;;6.40;4.82;;;19.50;99.90;;;;;;5070113;28;20036;-73
2022/05/04 12:33:45;;;;;;;4.88;4.45;;;20.30;99.90;;;;;;5071620;28;20027;-73
2022/05/04 12:36:12;;;;;;;5.35;4.90;;;20.40;99.90;;;;;;5071520;28;20105;-73
2022/05/04 12:38:39;;;;;;;6.82;5.22;;;20.70;99.90;;;;;;5071452;28;20031;-74
2022/05/04 12:41:07;;;;;;;6.95;6.10;;;20.70;99.90;;;;;;5058841;28;20045;-72
2022/05/04 12:43:37;;;;;;;6.05;5.22;;;20.70;99.90;;;;;;5070373;28;20028;-72
2022/05/04 12:46:15;;;;;;;6.15;5.55;;;21.50;99.90;;;;;;5069930;28;20039;-75
2022/05/04 12:48:44;;;;;;;13.65;5.75;;;21.10;99.90;;;;;;5067629;28;20090;-75
2022/05/04 12:51:12;;;;;;;7.45;5.20;;;20.90;99.90;;;;;;5065793;28;20055;-75
2022/05/04 12:53:40;;;;;;;9.75;6.03;;;20.20;99.90;;;;;;5064252;28;20016;-75
2022/05/04 12:58:53;;;;;;;6.77;5.70;;;19.60;99.90;;;;;;5071534;28;20596;-75
2022/05/04 13:01:26;;;;;;;6.95;6.00;;;19.30;99.90;;;;;;5072004;28;20294;-76
2022/05/04 13:03:52;;;;;;;6.03;5.03;;;19.00;99.90;;;;;;5071328;28;20041;-76
2022/05/04 13:06:18;;;;;;;6.25;4.80;;;18.60;99.90;;;;;;5071335;28;20100;-76